Time,TemperatureF,DewpointF,PressureIn,WindDirection,WindDirectionDegrees,WindSpeedMPH,WindSpeedGustMPH,Humidity,HourlyPrecipIn,Conditions,Clouds,dailyrainin,SoftwareType,DateUTC
2013-05-19 00:03:00,69.0,67.0,30.07,SSE,152,0.0,0.0,92,0.00,,,0.56,,2013-05-19 04:03:00,
2013-05-19 00:13:00,69.0,67.0,30.07,SSE,152,0.0,0.0,92,0.00,,,0.56,,2013-05-19 04:13:00,
2013-05-19 00:23:00,69.0,67.0,30.07,SSE,151,1.0,3.0,92,0.00,,,0.56,,2013-05-19 04:23:00,
2013-05-19 00:33:00,69.0,67.0,30.07,SSE,151,0.0,2.0,93,0.00,,,0.56,,2013-05-19 04:33:00,
2013-05-19 00:42:00,69.0,67.0,30.07,SSE,151,0.0,2.0,93,0.00,,,0.56,,2013-05-19 04:42:00,
2013-05-19 00:52:00,69.0,67.0,30.06,SE,144,0.0,3.0,93,0.00,,,0.56,,2013-05-19 04:52:00,
2013-05-19 01:02:00,69.0,67.0,30.06,South,171,1.0,5.0,93,0.00,,,0.53,,2013-05-19 05:02:00,
2013-05-19 01:12:00,69.0,67.0,30.06,South,171,1.0,5.0,93,0.00,,,0.53,,2013-05-19 05:12:00,
2013-05-19 01:22:00,68.0,66.0,30.06,SSE,165,0.0,2.0,93,0.00,,,0.53,,2013-05-19 05:22:00,
2013-05-19 01:32:00,68.0,66.0,30.05,SSE,165,0.0,3.0,93,0.00,,,0.53,,2013-05-19 05:32:00,
2013-05-19 01:42:00,68.0,66.0,30.05,SSE,165,0.0,0.0,93,0.00,,,0.53,,2013-05-19 05:42:00,
2013-05-19 01:51:00,68.0,66.0,30.05,SSE,165,0.0,0.0,93,0.00,,,0.53,,2013-05-19 05:51:00,
2013-05-19 02:02:00,68.0,66.0,30.05,SSE,165,0.0,1.0,94,0.00,,,0.32,,2013-05-19 06:02:00,
2013-05-19 02:12:00,68.0,66.0,30.05,SSE,165,0.0,1.0,94,0.00,,,0.32,,2013-05-19 06:12:00,
2013-05-19 02:21:00,68.0,66.0,30.05,SSE,165,0.0,0.0,94,0.00,,,0.32,,2013-05-19 06:21:00,
2013-05-19 02:32:00,68.0,66.0,30.04,SSE,165,0.0,0.0,94,0.00,,,0.32,,2013-05-19 06:32:00,
2013-05-19 02:42:00,68.0,66.0,30.04,SSE,165,0.0,0.0,94,0.00,,,0.32,,2013-05-19 06:42:00,
2013-05-19 02:52:00,68.0,66.0,30.04,SSE,165,0.0,0.0,94,0.00,,,0.32,,2013-05-19 06:52:00,
2013-05-19 03:01:00,68.0,66.0,30.03,ESE,110,0.0,0.0,94,0.00,,,0.28,,2013-05-19 07:01:00,
2013-05-19 03:11:00,68.0,66.0,30.03,ESE,110,0.0,0.0,94,0.00,,,0.28,,2013-05-19 07:11:00,
2013-05-19 03:21:00,68.0,66.0,30.04,ESE,113,0.0,2.0,94,0.00,,,0.28,,2013-05-19 07:21:00,
2013-05-19 03:32:00,68.0,66.0,30.04,SSE,155,0.0,3.0,94,0.00,,,0.28,,2013-05-19 07:32:00,
2013-05-19 03:42:00,68.0,66.0,30.04,SSE,155,0.0,3.0,94,0.00,,,0.28,,2013-05-19 07:42:00,
2013-05-19 03:52:00,68.0,67.0,30.04,SSE,155,0.0,0.0,95,0.00,,,0.28,,2013-05-19 07:52:00,
2013-05-19 04:02:00,68.0,67.0,30.04,SSE,155,0.0,1.0,95,0.00,,,0.04,,2013-05-19 08:02:00,
2013-05-19 04:12:00,68.0,67.0,30.04,SSE,155,0.0,1.0,95,0.00,,,0.04,,2013-05-19 08:12:00,
2013-05-19 04:22:00,68.0,67.0,30.03,SSE,155,0.0,0.0,95,0.00,,,0.04,,2013-05-19 08:22:00,
2013-05-19 04:32:00,68.0,67.0,30.04,SSE,155,0.0,0.0,95,0.00,,,0.04,,2013-05-19 08:32:00,
2013-05-19 04:42:00,68.0,67.0,30.04,SSE,155,0.0,0.0,95,0.00,,,0.04,,2013-05-19 08:42:00,
2013-05-19 04:52:00,68.0,67.0,30.04,SSE,155,0.0,0.0,95,0.00,,,0.04,,2013-05-19 08:52:00,
2013-05-19 05:02:00,68.0,67.0,30.04,SSE,155,0.0,0.0,95,0.00,,,0.01,,2013-05-19 09:02:00,
2013-05-19 05:12:00,68.0,67.0,30.04,SSE,155,0.0,0.0,95,0.00,,,0.01,,2013-05-19 09:12:00,
2013-05-19 05:21:00,68.0,67.0,30.03,SSE,155,0.0,0.0,95,0.00,,,0.01,,2013-05-19 09:21:00,
2013-05-19 05:32:00,68.0,67.0,30.03,SSE,155,0.0,0.0,95,0.00,,,0.01,,2013-05-19 09:32:00,
2013-05-19 05:43:00,68.0,67.0,30.03,SSE,155,0.0,0.0,95,0.00,,,0.01,,2013-05-19 09:43:00,
2013-05-19 05:53:00,68.0,67.0,30.03,SSE,155,0.0,0.0,95,0.00,,,0.01,,2013-05-19 09:53:00,
2013-05-19 06:03:00,68.0,67.0,30.03,SSE,155,0.0,0.0,96,0.00,,,0.01,,2013-05-19 10:03:00,
2013-05-19 06:12:00,68.0,67.0,30.04,SSE,155,0.0,0.0,96,0.00,,,0.01,,2013-05-19 10:12:00,
2013-05-19 06:23:00,68.0,67.0,30.04,SSE,155,0.0,0.0,96,0.00,,,0.01,,2013-05-19 10:23:00,
2013-05-19 06:33:00,68.0,67.0,30.05,SSE,155,0.0,0.0,96,0.00,,,0.01,,2013-05-19 10:33:00,
2013-05-19 06:42:00,68.0,67.0,30.05,SSE,155,0.0,0.0,96,0.00,,,0.01,,2013-05-19 10:42:00,
2013-05-19 06:52:00,68.0,67.0,30.05,SSE,155,0.0,0.0,96,0.00,,,0.01,,2013-05-19 10:52:00,
2013-05-19 07:02:00,68.0,67.0,30.06,SSE,155,0.0,0.0,96,0.00,,,0.01,,2013-05-19 11:02:00,
2013-05-19 07:12:00,68.0,67.0,30.06,SSE,155,0.0,0.0,96,0.00,,,0.01,,2013-05-19 11:12:00,
2013-05-19 07:21:00,68.0,67.0,30.06,SSE,155,0.0,0.0,96,0.00,,,0.01,,2013-05-19 11:21:00,
2013-05-19 07:32:00,68.0,67.0,30.07,SSE,155,0.0,0.0,96,0.00,,,0.01,,2013-05-19 11:32:00,
2013-05-19 07:42:00,68.0,67.0,30.07,SSE,155,0.0,0.0,96,0.00,,,0.01,,2013-05-19 11:42:00,
2013-05-19 07:52:00,68.0,67.0,30.08,SSE,155,0.0,0.0,96,0.00,,,0.01,,2013-05-19 11:52:00,
2013-05-19 08:01:00,68.0,67.0,30.07,SSE,155,0.0,0.0,96,0.00,,,0.01,,2013-05-19 12:01:00,
2013-05-19 08:12:00,68.0,67.0,30.07,SSE,155,0.0,0.0,96,0.00,,,0.01,,2013-05-19 12:12:00,
2013-05-19 08:22:00,69.0,68.0,30.08,SSE,155,0.0,2.0,97,0.00,,,0.01,,2013-05-19 12:22:00,
2013-05-19 08:32:00,69.0,68.0,30.07,SSE,155,0.0,5.0,96,0.00,,,0.01,,2013-05-19 12:32:00,
2013-05-19 08:42:00,69.0,68.0,30.07,SSE,155,0.0,5.0,96,0.00,,,0.01,,2013-05-19 12:42:00,
2013-05-19 08:52:00,69.0,68.0,30.07,SSE,155,0.0,0.0,96,0.00,,,0.01,,2013-05-19 12:52:00,
2013-05-19 09:01:00,69.0,68.0,30.08,SSE,155,0.0,0.0,96,0.00,,,0.01,,2013-05-19 13:01:00,
2013-05-19 09:11:00,69.0,68.0,30.08,SSE,155,0.0,0.0,96,0.00,,,0.01,,2013-05-19 13:11:00,
2013-05-19 09:21:00,69.0,68.0,30.07,SSE,155,0.0,1.0,96,0.00,,,0.01,,2013-05-19 13:21:00,
2013-05-19 09:32:00,69.0,68.0,30.08,SSE,155,0.0,2.0,97,0.02,,,0.03,,2013-05-19 13:32:00,
2013-05-19 09:42:00,69.0,68.0,30.08,SSE,155,0.0,2.0,97,0.02,,,0.03,,2013-05-19 13:42:00,
2013-05-19 09:52:00,69.0,68.0,30.08,SSE,155,0.0,1.0,97,0.11,,,0.12,,2013-05-19 13:52:00,
2013-05-19 10:02:00,68.0,67.0,30.09,SSE,155,1.0,2.0,97,0.21,,,0.22,,2013-05-19 14:02:00,
2013-05-19 10:11:00,68.0,67.0,30.09,SSE,155,1.0,2.0,97,0.21,,,0.22,,2013-05-19 14:11:00,
2013-05-19 10:21:00,68.0,67.0,30.10,SSE,155,0.0,1.0,96,0.23,,,0.24,,2013-05-19 14:21:00,
2013-05-19 10:32:00,68.0,67.0,30.09,SSE,155,0.0,1.0,96,0.21,,,0.24,,2013-05-19 14:32:00,
2013-05-19 10:42:00,68.0,67.0,30.09,SSE,155,0.0,1.0,96,0.21,,,0.24,,2013-05-19 14:42:00,
2013-05-19 10:52:00,68.0,67.0,30.09,SSE,155,0.0,1.0,96,0.21,,,0.24,,2013-05-19 14:52:00,
2013-05-19 11:02:00,68.0,67.0,30.09,SSE,155,0.0,1.0,96,0.21,,,0.24,,2013-05-19 15:02:00,
2013-05-19 11:22:00,68.0,67.0,30.08,SSE,167,0.0,8.0,97,0.00,,,0.24,,2013-05-19 15:22:00,
2013-05-19 11:33:00,67.0,66.0,30.08,SE,128,4.0,7.0,97,0.00,,,0.24,,2013-05-19 15:33:00,
2013-05-19 11:43:00,67.0,66.0,30.08,SE,128,4.0,7.0,97,0.00,,,0.24,,2013-05-19 15:43:00,
2013-05-19 11:53:00,67.0,66.0,30.09,South,171,1.0,10.0,97,0.00,,,0.24,,2013-05-19 15:53:00,
2013-05-19 12:03:00,67.0,66.0,30.08,SSW,209,2.0,11.0,97,0.00,,,0.24,,2013-05-19 16:03:00,
2013-05-19 12:12:00,67.0,66.0,30.08,SSW,209,2.0,11.0,97,0.00,,,0.24,,2013-05-19 16:12:00,
2013-05-19 12:23:00,67.0,66.0,30.09,SSE,152,1.0,8.0,96,0.11,,,0.35,,2013-05-19 16:23:00,
2013-05-19 12:32:00,67.0,66.0,30.09,South,172,3.0,10.0,97,0.18,,,0.42,,2013-05-19 16:32:00,
2013-05-19 12:42:00,67.0,66.0,30.09,South,172,3.0,10.0,97,0.18,,,0.42,,2013-05-19 16:42:00,
2013-05-19 12:52:00,66.0,65.0,30.10,SSW,203,0.0,7.0,96,0.41,,,0.65,,2013-05-19 16:52:00,
2013-05-19 13:02:00,66.0,65.0,30.10,SSE,168,4.0,7.0,96,0.41,,,0.65,,2013-05-19 17:02:00,
2013-05-19 13:12:00,66.0,65.0,30.10,SSE,168,4.0,7.0,96,0.41,,,0.65,,2013-05-19 17:12:00,
2013-05-19 13:22:00,66.0,65.0,30.09,SW,226,0.0,3.0,96,0.30,,,0.65,,2013-05-19 17:22:00,
2013-05-19 13:32:00,66.0,65.0,30.11,ESE,117,0.0,5.0,96,0.26,,,0.66,,2013-05-19 17:32:00,
2013-05-19 13:42:00,66.0,65.0,30.11,ESE,117,0.0,5.0,96,0.26,,,0.66,,2013-05-19 17:42:00,
2013-05-19 13:52:00,65.0,64.0,30.12,SE,143,0.0,3.0,97,0.16,,,0.81,,2013-05-19 17:52:00,
2013-05-19 14:02:00,65.0,64.0,30.11,SE,143,0.0,0.0,97,0.34,,,0.99,,2013-05-19 18:02:00,
2013-05-19 14:12:00,65.0,64.0,30.13,SE,137,0.0,4.0,97,0.57,,,1.22,,2013-05-19 18:12:00,
2013-05-19 14:22:00,65.0,64.0,30.13,SE,137,0.0,4.0,97,0.57,,,1.22,,2013-05-19 18:22:00,
2013-05-19 14:32:00,65.0,64.0,30.11,ESE,123,1.0,7.0,97,0.59,,,1.24,,2013-05-19 18:32:00,
2013-05-19 14:43:00,65.0,64.0,30.11,ESE,123,1.0,7.0,97,0.59,,,1.24,,2013-05-19 18:43:00,
2013-05-19 14:52:00,65.0,64.0,30.11,ESE,117,1.0,11.0,97,0.43,,,1.24,,2013-05-19 18:52:00,
2013-05-19 15:01:00,64.0,63.0,30.11,ESE,116,1.0,10.0,97,0.25,,,1.23,,2013-05-19 19:01:00,
2013-05-19 15:11:00,64.0,63.0,30.11,ESE,116,1.0,10.0,97,0.25,,,1.23,,2013-05-19 19:11:00,
2013-05-19 15:22:00,63.0,62.0,30.12,SE,124,0.0,7.0,97,0.02,,,1.23,,2013-05-19 19:22:00,
2013-05-19 15:32:00,63.0,62.0,30.12,ENE,62,4.0,11.0,97,0.00,,,1.23,,2013-05-19 19:32:00,
2013-05-19 15:42:00,63.0,62.0,30.12,ENE,62,4.0,11.0,97,0.00,,,1.23,,2013-05-19 19:42:00,
2013-05-19 15:52:00,63.0,62.0,30.12,ENE,76,1.0,4.0,97,0.00,,,1.23,,2013-05-19 19:52:00,
2013-05-19 16:02:00,63.0,62.0,30.15,North,353,0.0,5.0,97,0.03,,,1.26,,2013-05-19 20:02:00,
2013-05-19 16:11:00,63.0,62.0,30.15,North,353,0.0,5.0,97,0.03,,,1.26,,2013-05-19 20:11:00,
2013-05-19 16:21:00,63.0,62.0,30.16,WSW,254,3.0,7.0,97,0.03,,,1.26,,2013-05-19 20:21:00,
2013-05-19 16:32:00,63.0,62.0,30.11,SSE,158,2.0,4.0,97,0.12,,,1.35,,2013-05-19 20:32:00,
2013-05-19 16:42:00,63.0,62.0,30.11,SSE,158,2.0,4.0,97,0.12,,,1.35,,2013-05-19 20:42:00,
2013-05-19 16:52:00,63.0,62.0,30.11,WSW,247,0.0,6.0,97,0.13,,,1.36,,2013-05-19 20:52:00,
2013-05-19 17:02:00,63.0,62.0,30.15,SSW,209,3.0,7.0,97,0.10,,,1.36,,2013-05-19 21:02:00,
2013-05-19 17:11:00,63.0,62.0,30.15,SSW,209,3.0,7.0,97,0.10,,,1.36,,2013-05-19 21:11:00,
2013-05-19 17:22:00,62.0,61.0,30.11,SSW,195,2.0,7.0,96,0.10,,,1.36,,2013-05-19 21:22:00,
2013-05-19 17:32:00,62.0,61.0,30.09,SE,128,4.0,16.0,96,0.02,,,1.37,,2013-05-19 21:32:00,
2013-05-19 17:43:00,62.0,61.0,30.09,SE,128,4.0,16.0,96,0.02,,,1.37,,2013-05-19 21:43:00,
2013-05-19 17:53:00,63.0,62.0,30.09,South,182,2.0,10.0,96,0.01,,,1.37,,2013-05-19 21:53:00,
2013-05-19 18:03:00,63.0,62.0,30.07,West,271,5.0,11.0,95,0.01,,,1.37,,2013-05-19 22:03:00,
2013-05-19 18:12:00,63.0,62.0,30.07,West,271,5.0,11.0,95,0.01,,,1.37,,2013-05-19 22:12:00,
2013-05-19 18:23:00,62.0,61.0,30.06,WSW,250,6.0,12.0,96,0.01,,,1.37,,2013-05-19 22:23:00,
2013-05-19 18:33:00,62.0,61.0,30.07,South,186,6.0,11.0,97,0.00,,,1.37,,2013-05-19 22:33:00,
2013-05-19 18:42:00,62.0,61.0,30.07,South,186,6.0,11.0,97,0.00,,,1.37,,2013-05-19 22:42:00,
2013-05-19 18:52:00,63.0,62.0,30.06,West,278,7.0,14.0,96,0.00,,,1.37,,2013-05-19 22:52:00,
2013-05-19 19:03:00,63.0,62.0,30.08,West,263,1.0,10.0,95,0.00,,,1.37,,2013-05-19 23:03:00,
2013-05-19 19:12:00,63.0,62.0,30.08,West,263,1.0,10.0,95,0.00,,,1.37,,2013-05-19 23:12:00,
2013-05-19 19:22:00,62.0,60.0,30.08,SSW,209,1.0,7.0,94,0.00,,,1.37,,2013-05-19 23:22:00,
2013-05-19 19:32:00,63.0,62.0,30.08,SE,138,1.0,11.0,95,0.00,,,1.37,,2013-05-19 23:32:00,
2013-05-19 19:42:00,63.0,61.0,30.08,WSW,244,1.0,5.0,94,0.00,,,1.37,,2013-05-19 23:42:00,
2013-05-19 19:52:00,63.0,61.0,30.08,WSW,244,1.0,5.0,94,0.00,,,1.37,,2013-05-19 23:52:00,
2013-05-19 20:02:00,63.0,61.0,30.06,SSE,165,0.0,7.0,94,0.00,,,1.37,,2013-05-20 00:02:00,
2013-05-19 20:12:00,63.0,61.0,30.06,SSE,165,0.0,7.0,94,0.00,,,1.37,,2013-05-20 00:12:00,
2013-05-19 20:22:00,62.0,60.0,30.04,SSW,195,2.0,6.0,94,0.01,,,1.38,,2013-05-20 00:22:00,
2013-05-19 20:32:00,62.0,60.0,30.03,ENE,71,0.0,5.0,94,0.01,,,1.38,,2013-05-20 00:32:00,
2013-05-19 20:42:00,62.0,60.0,30.03,ENE,71,0.0,5.0,94,0.01,,,1.38,,2013-05-20 00:42:00,
2013-05-19 20:52:00,62.0,60.0,29.98,ESE,120,2.0,3.0,93,0.01,,,1.38,,2013-05-20 00:52:00,
2013-05-19 21:01:00,62.0,60.0,30.03,North,1,2.0,5.0,94,0.01,,,1.38,,2013-05-20 01:01:00,
2013-05-19 21:11:00,62.0,60.0,30.03,North,1,2.0,5.0,94,0.01,,,1.38,,2013-05-20 01:11:00,
2013-05-19 21:21:00,62.0,61.0,30.08,NE,52,1.0,3.0,96,0.00,,,1.38,,2013-05-20 01:21:00,
2013-05-19 21:32:00,61.0,60.0,30.07,NE,52,0.0,0.0,96,0.00,,,1.38,,2013-05-20 01:32:00,
2013-05-19 21:42:00,61.0,60.0,30.07,NE,52,0.0,0.0,96,0.00,,,1.38,,2013-05-20 01:42:00,
2013-05-19 21:52:00,61.0,60.0,30.04,NE,52,0.0,2.0,96,0.00,,,1.38,,2013-05-20 01:52:00,
2013-05-19 22:02:00,61.0,60.0,30.03,NE,52,0.0,0.0,96,0.00,,,1.38,,2013-05-20 02:02:00,
2013-05-19 22:12:00,61.0,60.0,30.03,NE,52,0.0,0.0,96,0.00,,,1.38,,2013-05-20 02:12:00,
2013-05-19 22:21:00,61.0,60.0,30.05,NE,52,0.0,1.0,96,0.00,,,1.38,,2013-05-20 02:21:00,
2013-05-19 22:32:00,61.0,60.0,30.05,NE,52,0.0,1.0,96,0.00,,,1.38,,2013-05-20 02:32:00,
2013-05-19 22:42:00,61.0,60.0,30.05,NE,52,0.0,1.0,96,0.00,,,1.38,,2013-05-20 02:42:00,
2013-05-19 22:51:00,61.0,60.0,30.05,NE,52,0.0,0.0,96,0.00,,,1.38,,2013-05-20 02:51:00,
2013-05-19 23:02:00,61.0,60.0,30.06,NE,52,0.0,0.0,96,0.00,,,1.38,,2013-05-20 03:02:00,
2013-05-19 23:11:00,60.0,59.0,30.06,NE,52,0.0,2.0,96,0.00,,,1.38,,2013-05-20 03:11:00,
2013-05-19 23:21:00,60.0,59.0,30.06,NE,52,0.0,2.0,96,0.00,,,1.38,,2013-05-20 03:21:00,
2013-05-19 23:33:00,60.0,59.0,30.06,NE,52,0.0,0.0,96,0.00,,,1.38,,2013-05-20 03:33:00,
2013-05-19 23:43:00,60.0,59.0,30.06,NE,52,0.0,1.0,96,0.00,,,1.38,,2013-05-20 03:43:00,
2013-05-19 23:52:00,60.0,59.0,30.06,NE,52,0.0,1.0,96,0.00,,,1.38,,2013-05-20 03:52:00,